ADDS METAR Data INFO
IDs: Format: Raw Decoded Include TAF

Data at: 0859 UTC 20 Oct 2017

KEDU 200835Z AUTO 23005KT 10SM FEW048 SCT060 BKN080 13/10 A2988 RMK AO1
KEDU 200815Z AUTO 27004KT 9SM FEW019 BKN048 OVC075 13/11 A2988 RMK AO1
KEDU 200755Z AUTO 28005KT 7SM FEW021 SCT027 BKN035 13/11 A2988 RMK AO1 P0010
KEDU 200735Z AUTO 31010G20KT 4SM SCT023 BKN034 OVC042 13/12 A2985 RMK AO1 P0010
KEDU 200715Z AUTO 27011G14KT 4SM FEW006 SCT017 BKN030 15/15 A2983 RMK AO1 P0008
KEDU 200655Z AUTO 19015G20KT 3SM SCT016 BKN022 OVC036 16/15 A2980 RMK AO1 P0003
KEDU 200635Z AUTO 18012G19KT 10SM SCT018 BKN023 OVC050 16/15 A2981 RMK AO1 P0001
KEDU 200615Z AUTO 17013G18KT 4SM FEW017 BKN023 OVC034 15/15 A2980 RMK AO1 P0001
KEDU 200555Z AUTO 17013G18KT 10SM SCT035 BKN044 BKN060 15/15 A2980 RMK AO1
KEDU 200535Z AUTO 17011KT 10SM SCT016 BKN060 BKN120 15/15 A2982 RMK AO1
KEDU 200515Z AUTO 18011KT 10SM BKN011 OVC016 15/15 A2983 RMK AO1
KEDU 200455Z AUTO 16007KT 10SM OVC011 15/15 A2984 RMK AO1
KEDU 200435Z AUTO 16009KT 10SM BKN009 OVC013 15/15 A2985 RMK AO1
KEDU 200415Z AUTO 19009KT 5SM BKN007 BKN013 OVC065 15/15 A2986 RMK AO1
KEDU 200355Z AUTO 19011G16KT 10SM SCT015 BKN039 OVC065 15/14 A2986 RMK AO1
KEDU 200335Z AUTO 20010G16KT 3SM FEW017 SCT022 BKN034 15/15 A2987 RMK AO1
KEDU 200315Z AUTO 20012G18KT 10SM SCT039 15/13 A2987 RMK AO1
KEDU 200255Z AUTO 21013KT 10SM CLR 15/13 A2986 RMK AO1
KEDU 200235Z AUTO 21007KT 10SM CLR 15/13 A2986 RMK AO1
KEDU 200215Z AUTO 20009KT 10SM FEW027 FEW070 16/12 A2987 RMK AO1
KEDU 200155Z AUTO 21009KT 10SM FEW027 BKN070 16/12 A2987 RMK AO1
KEDU 200135Z AUTO 21010G14KT 10SM CLR 17/12 A2986 RMK AO1
KEDU 200115Z AUTO 21010G14KT 10SM CLR 17/12 A2986 RMK AO1
KEDU 200055Z AUTO 21009G19KT 10SM CLR 18/11 A2986 RMK AO1
KEDU 200035Z AUTO 21013G16KT 10SM CLR 19/11 A2985 RMK AO1
KEDU 200015Z AUTO 21013G16KT 10SM CLR 19/11 A2985 RMK AO1
KEDU 192355Z AUTO 21013KT 10SM CLR 19/11 A2986 RMK AO1
KEDU 192335Z AUTO 22012G19KT 10SM CLR 19/11 A2987 RMK AO1
KEDU 192315Z AUTO 22012G16KT 10SM CLR 19/10 A2987 RMK AO1
KEDU 192255Z AUTO 22012G16KT 10SM FEW055 20/11 A2987 RMK AO1
KEDU 192235Z AUTO 23009G18KT 10SM BKN055 22/10 A2987 RMK AO1
KEDU 192215Z AUTO 22011KT 10SM OVC049 21/10 A2988 RMK AO1
KEDU 192155Z AUTO 21012G18KT 10SM OVC049 21/10 A2988 RMK AO1
KEDU 192135Z AUTO 22015G19KT 10SM OVC047 21/10 A2988 RMK AO1
KEDU 192115Z AUTO 21014G20KT 10SM BKN047 22/10 A2988 RMK AO1
KEDU 192055Z AUTO 20013G18KT 10SM BKN047 22/10 A2989 RMK AO1
KEDU 192035Z AUTO 20010G14KT 10SM BKN047 BKN055 22/10 A2990 RMK AO1
KEDU 192015Z AUTO 20009G14KT 150V230 10SM BKN045 BKN055 22/10 A2991 RMK AO1
KEDU 191955Z AUTO 18009KT 10SM SCT045 21/10 A2992 RMK AO1
KEDU 191935Z AUTO 21011KT 10SM SCT043 21/10 A2993 RMK AO1
KEDU 191915Z AUTO 19009KT 10SM SCT043 21/10 A2993 RMK AO1
KEDU 191855Z AUTO 19006KT 10SM CLR 20/09 A2994 RMK AO1
KEDU 191835Z AUTO 19006KT 10SM CLR 19/09 A2994 RMK AO1
KEDU 191815Z AUTO 18006KT 10SM FEW085 19/09 A2994 RMK AO1
KEDU 191755Z AUTO 20008KT 10SM BKN075 18/09 A2994 RMK AO1
KEDU 191735Z AUTO 20009KT 10SM SCT075 BKN080 17/09 A2994 RMK AO1
KEDU 191715Z AUTO 19009KT 10SM FEW050 BKN075 17/09 A2994 RMK AO1
KEDU 191655Z AUTO 18010KT 10SM FEW050 OVC065 17/09 A2994 RMK AO1
KEDU 191635Z AUTO 21008KT 10SM BKN065 14/10 A2994 RMK AO1
KEDU 191615Z AUTO 19006KT 10SM BKN065 14/10 A2993 RMK AO1
KEDU 191555Z AUTO 20006KT 10SM SCT065 13/10 A2993 RMK AO1
KEDU 191535Z AUTO 18007KT 10SM FEW065 SCT090 13/10 A2993 RMK AO1
KEDU 191515Z AUTO 18006KT 10SM FEW070 BKN090 13/10 A2992 RMK AO1
KEDU 191455Z AUTO 17004KT 10SM FEW070 SCT090 12/10 A2992 RMK AO1
KEDU 191435Z AUTO 12004KT 10SM SCT090 12/10 A2992 RMK AO1
KEDU 191415Z AUTO 14005KT 10SM FEW090 12/10 A2991 RMK AO1
KEDU 191355Z AUTO 15004KT 10SM FEW090 12/10 A2991 RMK AO1
KEDU 191335Z AUTO 17007KT 10SM CLR 12/09 A2991 RMK AO1
KEDU 191315Z AUTO 16006KT 10SM FEW090 12/09 A2991 RMK AO1
KEDU 191255Z AUTO 19005KT 10SM CLR 12/09 A2991 RMK AO1
KEDU 191235Z AUTO 19007KT 10SM CLR 12/09 A2991 RMK AO1
KEDU 191215Z AUTO 20008KT 10SM CLR 12/09 A2991 RMK AO1
KEDU 191155Z AUTO 20007KT 10SM CLR 12/09 A2991 RMK AO1
KEDU 191135Z AUTO 21007KT 10SM CLR 12/09 A2991 RMK AO1
KEDU 191115Z AUTO 20006KT 10SM CLR 12/09 A2991 RMK AO1
KEDU 191055Z AUTO 20009KT 10SM CLR 12/08 A2991 RMK AO1
KEDU 191035Z AUTO 20011KT 10SM CLR 12/08 A2992 RMK AO1
KEDU 191015Z AUTO 19011KT 10SM CLR 12/08 A2991 RMK AO1
KEDU 190955Z AUTO 20006KT 10SM CLR 12/09 A2991 RMK AO1
KEDU 190935Z AUTO 19007KT 10SM CLR 12/09 A2992 RMK AO1
KEDU 190915Z AUTO 19010KT 10SM CLR 12/09 A2992 RMK AO1
KEDU 190855Z AUTO 18006KT 10SM CLR 12/08 A2992 RMK AO1
KEDU 190835Z AUTO 21008KT 10SM CLR 11/07 A2992 RMK AO1
KEDU 190815Z AUTO 00000KT 10SM CLR 10/07 A2992 RMK AO1
KEDU 190755Z AUTO 17003KT 10SM CLR 11/07 A2992 RMK AO1
KEDU 190735Z AUTO 21004KT 10SM CLR 11/06 A2993 RMK AO1
KEDU 190715Z AUTO 20005KT 10SM CLR 12/07 A2993 RMK AO1
KEDU 190655Z AUTO 17004KT 10SM CLR 11/07 A2993 RMK AO1
KEDU 190635Z AUTO 16004KT 10SM CLR 11/07 A2993 RMK AO1
KEDU 190615Z AUTO 16004KT 10SM CLR 12/07 A2993 RMK AO1
KEDU 190555Z AUTO 14006KT 10SM CLR 12/06 A2993 RMK AO1
KEDU 190535Z AUTO 14005KT 10SM CLR 12/06 A2993 RMK AO1
KEDU 190515Z AUTO 15004KT 10SM CLR 12/06 A2992 RMK AO1
KEDU 190455Z AUTO 15004KT 10SM CLR 13/05 A2992 RMK AO1
KEDU 190435Z AUTO 16003KT 10SM CLR 13/06 A2991 RMK AO1
KEDU 190415Z AUTO 17003KT 10SM CLR 14/06 A2991 RMK AO1
KEDU 190355Z AUTO 18003KT 10SM CLR 15/06 A2991 RMK AO1
KEDU 190335Z AUTO 19003KT 10SM CLR 15/07 A2992 RMK AO1
KEDU 190315Z AUTO 15003KT 10SM CLR 15/07 A2992 RMK AO1
KEDU 190255Z AUTO 16003KT 10SM CLR 15/07 A2992 RMK AO1
KEDU 190235Z AUTO 00000KT 10SM CLR 17/07 A2992 RMK AO1
KEDU 190215Z AUTO 19003KT 10SM CLR 17/07 A2992 RMK AO1
KEDU 190155Z AUTO 16004KT 10SM CLR 18/06 A2992 RMK AO1
KEDU 190135Z AUTO 17005KT 9SM CLR 20/04 A2992 RMK AO1
KEDU 190115Z AUTO 17003KT 9SM CLR 22/04 A2992 RMK AO1
KEDU 190055Z AUTO 17005KT 9SM CLR 23/03 A2992 RMK AO1
KEDU 190035Z AUTO 17006KT 10SM CLR 24/02 A2993 RMK AO1
KEDU 190015Z AUTO 18008KT 10SM CLR 25/02 A2993 RMK AO1
KEDU 182355Z AUTO 20008KT 10SM CLR 25/02 A2994 RMK AO1
KEDU 182335Z AUTO 18009KT 10SM CLR 26/03 A2994 RMK AO1
KEDU 182315Z AUTO 19008KT 10SM CLR 27/02 A2994 RMK AO1
KEDU 182255Z AUTO 17009KT 10SM CLR 27/03 A2995 RMK AO1
KEDU 182235Z AUTO 16007KT 140V200 10SM CLR 27/03 A2996 RMK AO1
KEDU 182215Z AUTO 17007KT 9SM CLR 26/03 A2996 RMK AO1
KEDU 182155Z AUTO 16009KT 10SM CLR 26/02 A2997 RMK AO1
KEDU 182135Z AUTO 18006KT 10SM CLR 25/02 A2998 RMK AO1
KEDU 182115Z AUTO 17003KT 10SM CLR 25/03 A2999 RMK AO1